Latest Weather Observations for West Wyalong

IDN60801

Issued at 10:33 am EDT Monday 22 December 2014 (issued every 30 minutes, with the page automatically refreshed every 10 minutes)

About weather observations | Map of weather stations | Latest weather observations for NSW | Other Formats
Station Details ID: 050017 Name: WEST WYALONG AIRPORT AWS Lat: -33.94 Lon: 147.20 Height: 257.0 m
Data from the previous 72 hours. | See also: Recent months for locations in New South Wales
Date/Time
EDT
Temp
°C
App
Temp
°C
Dew
Point
Rel
Hum
%
Delta-T
°C
Wind Press
QNH
hPa
Press
MSL
hPa
Rain
since 9 am
mm
Dir
 
Spd
km/h
Gust
km/h
Spd
kts
Gust
kts
22/10:30am 30.8 26.2 12.2 32 11.0 N 28 33 15 18 1013.6 1012.4 0.0
22/10:00am 30.6 26.7 12.0 32 11.0 N 24 35 13 19 1013.7 1012.5 0.0
22/09:30am 30.6 26.1 11.5 30 11.2 N 26 39 14 21 1013.5 1012.3 0.0
22/09:00am 29.4 24.8 12.3 34 10.1 N 28 39 15 21 1013.5 1012.3 0.0
22/08:30am 27.8 24.4 12.6 39 9.0 NNE 22 32 12 17 1013.4 1012.2 0.0
22/08:00am 25.5 22.9 12.0 43 7.8 NNE 17 24 9 13 1013.5 1012.3 0.0
22/07:30am 26.3 23.5 11.2 38 8.7 NNE 17 26 9 14 1013.4 1012.2 0.0
22/07:00am 24.7 22.6 11.3 43 7.6 NNE 13 19 7 10 1013.0 1011.8 0.0
22/06:30am 23.9 22.4 10.6 43 7.5 NNE 9 13 5 7 1012.6 1011.5 0.0
22/06:00am 22.1 20.6 9.3 44 6.9 NNE 7 9 4 5 1012.6 1011.5 0.0
22/05:30am 21.6 20.0 7.8 41 7.3 NNE 6 7 3 4 1012.5 1011.4 0.0
22/05:00am 20.4 19.0 7.1 42 6.9 NNE 4 9 2 5 1012.3 1011.2 0.0
22/04:30am 20.5 18.5 6.4 40 7.2 N 6 9 3 5 1012.1 1011.0 0.0
22/04:00am 21.4 20.5 6.1 37 7.8 CALM 0 4 0 2 1012.0 1010.9 0.0
22/03:30am 19.6 17.7 6.7 43 6.6 SSW 6 15 3 8 1012.1 1011.0 0.0
22/03:00am 19.9 19.0 5.9 40 7.0 CALM 0 0 0 0 1011.8 1010.7 0.0
22/02:30am 20.2 18.1 5.8 39 7.2 SW 6 7 3 4 1011.9 1010.8 0.0
22/02:00am 20.7 19.8 5.9 38 7.5 CALM 0 0 0 0 1012.2 1011.1 0.0
22/01:30am 20.9 20.0 6.1 38 7.5 CALM 0 0 0 0 1012.3 1011.2 0.0
22/01:00am 21.7 20.8 6.0 36 8.0 CALM 0 0 0 0 1012.6 1011.5 0.0
22/12:30am 22.3 21.1 4.8 32 8.8 CALM 0 0 0 0 1012.8 1011.7 0.0
22/12:00am 23.6 22.5 5.0 30 9.4 CALM 0 0 0 0 1012.8 1011.7 0.0
 
Date/Time
EDT
Temp
°C
App
Temp
°C
Dew
Point
Rel
Hum
%
Delta-T
°C
Wind Press
QNH
hPa
Press
MSL
hPa
Rain
since 9 am
mm
Dir
 
Spd
km/h
Gust
km/h
Spd
kts
Gust
kts
21/11:30pm 25.3 24.3 5.5 28 10.2 CALM 0 0 0 0 1013.0 1011.8 0.0
21/11:00pm 26.0 24.6 5.6 27 10.6 W 2 7 1 4 1013.1 1011.9 0.0
21/10:30pm 27.3 25.3 6.1 26 11.2 W 6 15 3 8 1012.8 1011.7 0.0
21/10:00pm 25.4 24.6 6.6 30 9.9 CALM 0 0 0 0 1012.5 1011.4 0.0
21/09:30pm 26.0 25.0 5.6 27 10.6 CALM 0 0 0 0 1012.2 1011.1 0.0
21/09:00pm 27.9 25.6 4.9 23 11.9 NE 6 6 3 3 1011.8 1010.7 0.0
21/08:30pm 29.8 27.4 5.1 21 13.0 NE 7 7 4 4 1011.7 1010.6 0.0
21/08:00pm 31.0 28.5 3.9 18 14.1 E 6 11 3 6 1011.5 1010.4 0.0
21/07:30pm 32.9 30.4 3.8 16 15.3 SSW 6 7 3 4 1011.6 1010.5 0.0
21/07:00pm 34.2 31.7 3.9 15 16.0 W 6 11 3 6 1011.4 1010.3 0.0
21/06:30pm 33.2 31.3 3.1 15 15.6 N 2 11 1 6 1011.3 1010.1 0.0
21/06:00pm 35.1 32.4 3.6 14 16.7 NW 7 17 4 9 1011.4 1010.3 0.0
21/05:30pm 34.5 31.5 4.1 15 16.2 NNE 9 15 5 8 1011.5 1010.4 0.0
21/05:00pm 34.7 31.4 4.3 15 16.2 NNW 11 26 6 14 1011.8 1010.7 0.0
21/04:30pm 34.4 30.1 3.1 14 16.4 NNW 15 26 8 14 1012.0 1010.9 0.0
21/04:00pm 34.5 31.5 4.1 15 16.2 N 9 20 5 11 1012.5 1011.4 0.0
21/03:30pm 34.2 30.8 3.9 15 16.0 SW 11 24 6 13 1012.8 1011.7 0.0
21/03:00pm 34.0 30.5 3.7 15 16.0 NNE 11 19 6 10 1013.2 1012.0 0.0
21/02:30pm 33.8 31.3 4.5 16 15.6 SW 7 15 4 8 1013.7 1012.5 0.0
21/02:00pm 33.5 29.8 4.2 16 15.5 NNE 13 24 7 13 1014.2 1013.0 0.0
21/01:30pm 32.5 28.2 5.1 18 14.6 NE 17 26 9 14 1014.7 1013.5 0.0
21/01:00pm 32.4 29.9 6.6 20 14.1 NW 9 20 5 11 1015.1 1014.0 0.0
21/12:30pm 32.1 28.4 6.3 20 14.0 N 15 28 8 15 1015.4 1014.3 0.0
21/12:00pm 30.5 26.6 7.0 23 12.8 N 17 26 9 14 1015.9 1014.8 0.0
21/11:30am 30.1 26.4 7.9 25 12.3 N 17 24 9 13 1015.8 1014.7 0.0
21/11:00am 29.7 26.1 8.2 26 11.9 N 17 30 9 16 1016.0 1014.9 0.0
21/10:30am 28.3 24.6 8.1 28 11.1 N 17 24 9 13 1016.2 1015.1 0.0
21/10:00am 27.9 24.4 8.7 30 10.6 N 17 26 9 14 1016.5 1015.4 0.0
21/09:30am 26.6 22.9 9.5 34 9.5 N 19 26 10 14 1016.6 1015.5 0.0
21/09:00am 25.3 21.6 10.0 38 8.5 NNE 20 26 11 14 1016.6 1015.5 0.0
21/08:30am 23.9 20.6 9.5 40 7.9 NNE 17 22 9 12 1016.4 1015.3 0.0
21/08:00am 22.5 19.8 9.0 42 7.3 NNE 13 17 7 9 1016.2 1015.1 0.0
21/07:30am 20.6 18.6 8.6 46 6.4 ENE 9 13 5 7 1016.1 1015.0 0.0
21/07:00am 18.7 16.6 8.4 51 5.4 ENE 9 11 5 6 1015.8 1014.7 0.0
21/06:30am 16.5 15.7 8.2 58 4.3 E 2 7 1 4 1015.5 1014.4 0.0
21/06:00am 15.1 13.5 6.4 56 4.3 E 4 7 2 4 1015.1 1014.0 0.0
21/05:30am 16.0 13.5 6.7 54 4.6 E 9 11 5 6 1014.8 1013.7 0.0
21/05:00am 15.9 13.2 5.5 50 5.0 ESE 9 11 5 6 1014.6 1013.4 0.0
21/04:30am 16.0 13.3 5.6 50 5.1 ESE 9 11 5 6 1014.4 1013.2 0.0
21/04:00am 15.9 14.8 4.9 48 5.3 CALM 0 0 0 0 1014.2 1013.0 0.0
21/03:30am 16.0 14.9 5.0 48 5.3 CALM 0 0 0 0 1014.1 1012.9 0.0
21/03:00am 16.6 15.4 4.6 45 5.7 CALM 0 0 0 0 1014.1 1012.9 0.0
21/02:30am 17.6 16.5 4.9 43 6.2 CALM 0 0 0 0 1014.2 1013.0 0.0
21/02:00am 17.9 16.7 4.5 41 6.5 CALM 0 0 0 0 1014.4 1013.2 0.0
21/01:30am 17.7 15.4 5.0 43 6.2 WSW 6 7 3 4 1014.4 1013.2 0.0
21/01:00am 18.2 15.8 4.4 40 6.7 WSW 6 6 3 3 1014.6 1013.4 0.0
21/12:30am 19.5 17.0 4.0 36 7.5 SW 6 7 3 4 1014.7 1013.5 0.0
21/12:00am 19.6 18.3 4.1 36 7.5 CALM 0 0 0 0 1014.9 1013.8 0.0
 
Date/Time
EDT
Temp
°C
App
Temp
°C
Dew
Point
Rel
Hum
%
Delta-T
°C
Wind Press
QNH
hPa
Press
MSL
hPa
Rain
since 9 am
mm
Dir
 
Spd
km/h
Gust
km/h
Spd
kts
Gust
kts
20/11:30pm 20.5 19.2 4.1 34 8.0 CALM 0 0 0 0 1015.2 1014.1 0.0
20/11:00pm 21.6 19.0 4.2 32 8.6 SSW 7 7 4 4 1015.1 1014.0 0.0
20/10:30pm 22.4 20.0 4.5 31 8.9 SW 6 7 3 4 1015.0 1013.9 0.0
20/10:00pm 23.0 20.5 4.5 30 9.2 SW 7 9 4 5 1014.9 1013.8 0.0
20/09:30pm 24.6 21.7 4.9 28 10.0 SW 9 11 5 6 1014.6 1013.4 0.0
20/09:00pm 24.6 22.0 4.4 27 10.2 SSW 7 9 4 5 1014.3 1013.1 0.0
20/08:30pm 27.0 23.7 4.7 24 11.5 SSW 11 13 6 7 1014.1 1012.9 0.0
20/08:00pm 28.8 25.1 4.3 21 12.7 SSW 13 17 7 9 1013.9 1012.7 0.0
20/07:30pm 29.8 25.7 4.4 20 13.2 SSW 15 19 8 10 1013.7 1012.5 0.0
20/07:00pm 30.0 25.4 3.9 19 13.5 S 17 20 9 11 1013.6 1012.4 0.0
20/06:30pm 30.6 26.5 4.4 19 13.7 SSW 15 22 8 12 1013.3 1012.1 0.0
20/06:00pm 30.5 26.4 4.3 19 13.7 SSE 15 22 8 12 1013.1 1011.9 0.0
20/05:30pm 30.1 25.9 4.0 19 13.5 SE 15 24 8 13 1013.1 1011.9 0.0
20/05:00pm 31.2 26.7 4.1 18 14.1 SSW 17 20 9 11 1013.3 1012.1 0.0
20/04:30pm 30.4 26.7 4.2 19 13.6 S 13 20 7 11 1013.4 1012.2 0.0
20/04:00pm 30.0 26.3 4.6 20 13.3 SSW 13 22 7 12 1013.8 1012.6 0.0
20/03:30pm 30.0 26.1 5.3 21 13.1 SSW 15 30 8 16 1014.3 1013.1 0.0
20/03:00pm 29.8 25.5 5.1 21 13.0 SSW 17 26 9 14 1014.7 1013.5 0.0
20/02:30pm 28.8 25.2 5.0 22 12.4 WSW 13 24 7 13 1015.1 1014.0 0.0
20/02:00pm 28.9 25.3 5.1 22 12.5 SW 13 22 7 12 1015.4 1014.3 0.0
20/01:30pm 27.5 23.1 4.5 23 11.8 S 17 26 9 14 1015.9 1014.8 0.0
20/01:00pm 27.3 23.7 5.0 24 11.5 SSE 13 22 7 12 1016.2 1015.1 0.0
20/12:30pm 26.5 22.4 4.3 24 11.3 SSE 15 26 8 14 1016.7 1015.6 0.0
20/12:00pm 25.8 22.7 3.7 24 11.1 E 9 24 5 13 1016.9 1015.8 0.0
20/11:30am 24.9 22.2 3.5 25 10.6 S 7 15 4 8 1017.4 1016.2 0.0
20/11:00am 24.1 20.3 4.0 27 10.0 S 13 20 7 11 1017.4 1016.2 0.0
20/10:30am 22.5 18.9 3.1 28 9.4 W 11 20 6 11 1017.6 1016.4 0.0
20/10:00am 22.6 20.2 4.2 30 9.1 N 6 20 3 11 1017.7 1016.5 0.0
20/09:30am 20.5 17.3 3.3 32 8.3 WSW 9 15 5 8 1017.9 1016.7 0.0
20/09:00am 19.7 17.3 4.2 36 7.5 W 6 9 3 5 1017.9 1016.7 0.0
20/08:30am 18.7 16.3 4.5 39 6.9 SE 6 9 3 5 1017.6 1016.4 0.0
20/08:00am 17.6 14.9 3.5 39 6.6 SE 7 11 4 6 1017.4 1016.2 0.0
20/07:30am 17.2 14.0 3.1 39 6.6 SE 9 13 5 7 1016.8 1015.7 0.0
20/07:00am 15.5 12.7 3.3 44 5.6 S 7 9 4 5 1016.4 1015.3 0.0
20/06:30am 13.0 10.2 3.1 51 4.5 SW 7 9 4 5 1016.3 1015.2 0.0
20/06:00am 12.6 9.3 2.7 51 4.4 SW 9 11 5 6 1016.0 1014.9 0.0
20/05:30am 12.2 9.0 2.9 53 4.1 W 9 11 5 6 1016.1 1015.0 0.0
20/05:00am 11.4 8.5 2.4 54 3.9 WSW 7 11 4 6 1015.9 1014.8 0.0
20/04:30am 12.3 9.6 2.5 51 4.3 SW 6 7 3 4 1015.8 1014.7 0.0
20/04:00am 12.5 9.6 2.7 51 4.3 WSW 7 9 4 5 1015.8 1014.7 0.0
20/03:30am 12.9 9.5 1.9 47 4.8 SW 9 11 5 6 1015.7 1014.6 0.0
20/03:00am 14.3 11.3 1.9 43 5.5 SW 7 9 4 5 1015.9 1014.8 0.0
20/02:30am 14.6 11.8 1.8 42 5.7 SW 6 7 3 4 1016.2 1015.1 0.0
20/02:00am 15.0 12.2 1.9 41 5.8 SW 6 7 3 4 1016.4 1015.3 0.0
20/01:30am 15.5 12.4 1.3 38 6.3 S 7 11 4 6 1016.7 1015.6 0.0
20/01:00am 16.4 12.5 1.3 36 6.7 S 11 13 6 7 1016.8 1015.7 0.0
20/12:30am 17.2 12.9 1.2 34 7.2 SSW 13 15 7 8 1017.1 1015.9 0.0
20/12:00am 16.8 13.3 1.3 35 6.9 SSW 9 13 5 7 1017.2 1016.0 0.0
 
Date/Time
EDT
Temp
°C
App
Temp
°C
Dew
Point
Rel
Hum
%
Delta-T
°C
Wind Press
QNH
hPa
Press
MSL
hPa
Rain
since 9 am
mm
Dir
 
Spd
km/h
Gust
km/h
Spd
kts
Gust
kts
19/11:30pm 16.9 13.4 1.0 34 7.1 SSW 9 13 5 7 1017.1 1015.9 0.0
19/11:00pm 17.3 13.7 0.5 32 7.4 SSW 9 11 5 6 1017.1 1015.9 0.0
19/10:30pm 17.8 14.6 0.5 31 7.7 SSW 7 9 4 5 1016.8 1015.7 0.0
19/10:00pm 18.8 15.2 0.4 29 8.2 SW 9 13 5 7 1016.5 1015.4 0.0
19/09:30pm 20.3 16.0 0.7 27 8.9 SW 13 19 7 10 1016.3 1015.2 0.0
19/09:00pm 21.2 16.0 0.4 25 9.5 SW 17 20 9 11 1015.9 1014.8 0.0
19/08:30pm 22.1 16.5 0.0 23 10.1 SW 19 24 10 13 1015.7 1014.6 0.0
19/08:00pm 23.0 16.0 -0.5 21 10.7 SW 26 32 14 17 1015.6 1014.5 0.0
19/07:30pm 23.8 16.7 -1.2 19 11.3 SW 26 33 14 18 1015.3 1014.2 0.0
19/07:00pm 24.6 17.4 -2.0 17 11.9 SW 26 35 14 19 1015.0 1013.9 0.0
19/06:30pm 25.1 18.0 -1.6 17 12.1 SW 26 37 14 20 1014.6 1013.4 0.0
19/06:00pm 26.0 18.9 -0.9 17 12.4 SW 26 39 14 21 1014.3 1013.1 0.0
19/05:30pm 25.9 18.8 -1.0 17 12.4 WSW 26 39 14 21 1014.0 1012.8 0.0
19/05:00pm 25.0 17.8 -1.7 17 12.1 SW 26 39 14 21 1014.1 1012.9 0.0
19/04:30pm 25.1 16.8 -1.6 17 12.1 WSW 32 44 17 24 1014.3 1013.1 0.0
19/04:00pm 25.9 18.8 -1.0 17 12.4 SW 26 54 14 29 1014.3 1013.1 0.0
19/03:30pm 25.6 18.8 -2.1 16 12.5 SW 24 35 13 19 1014.5 1013.3 0.0
19/03:00pm 25.0 17.5 -1.7 17 12.0 SW 28 39 15 21 1014.7 1013.5 0.0
19/02:30pm 24.4 17.5 -3.0 16 12.0 WSW 24 37 13 20 1014.9 1013.8 0.0
19/02:00pm 24.4 17.6 -2.2 17 11.8 WSW 24 33 13 18 1015.1 1014.0 0.0
19/01:30pm 23.8 17.1 -1.2 19 11.3 WSW 24 35 13 19 1015.4 1014.3 0.0
19/01:00pm 23.3 16.7 -0.2 21 10.8 WSW 24 37 13 20 1015.4 1014.3 0.0
19/12:30pm 22.5 16.9 1.5 25 9.9 SSW 20 33 11 18 1015.6 1014.5 0.0
19/12:00pm 21.2 15.3 1.5 27 9.2 SW 22 37 12 20 1015.8 1014.7 0.0
19/11:30am 22.1 16.0 2.8 28 9.3 WSW 24 37 13 20 1015.8 1014.7 0.0
19/11:00am 20.9 14.8 2.7 30 8.6 SW 24 41 13 22 1015.9 1014.8 0.0

Other Formats:

Comma delimited format used in spreadsheet applications
http://www.bom.gov.au/fwo/IDN60801/IDN60801.95709.axf

JavaScript Object Notation format (JSON) in row-major order
http://www.bom.gov.au/fwo/IDN60801/IDN60801.95709.json